sensor_id;sensor_type;location;lat;lon;timestamp;temperature;humidity
70079;DHT22;57451;52.496;13.456;2023-04-25T00:01:22;9.20;64.50
70079;DHT22;57451;52.496;13.456;2023-04-25T00:03:50;9.20;64.30
70079;DHT22;57451;52.496;13.456;2023-04-25T00:06:18;9.30;63.90
70079;DHT22;57451;52.496;13.456;2023-04-25T00:08:45;9.20;63.90
70079;DHT22;57451;52.496;13.456;2023-04-25T00:11:14;9.20;64.00
70079;DHT22;57451;52.496;13.456;2023-04-25T00:13:41;9.10;64.00
70079;DHT22;57451;52.496;13.456;2023-04-25T00:16:08;9.10;64.00
70079;DHT22;57451;52.496;13.456;2023-04-25T00:18:36;9.20;63.90
70079;DHT22;57451;52.496;13.456;2023-04-25T00:21:03;9.10;63.50
70079;DHT22;57451;52.496;13.456;2023-04-25T00:23:33;9.00;63.40
70079;DHT22;57451;52.496;13.456;2023-04-25T00:26:02;9.10;63.40
70079;DHT22;57451;52.496;13.456;2023-04-25T00:28:31;9.10;63.30
70079;DHT22;57451;52.496;13.456;2023-04-25T00:30:58;9.10;63.10
70079;DHT22;57451;52.496;13.456;2023-04-25T00:33:26;9.10;62.90
70079;DHT22;57451;52.496;13.456;2023-04-25T00:35:53;9.10;63.00
70079;DHT22;57451;52.496;13.456;2023-04-25T00:38:21;9.10;62.90
70079;DHT22;57451;52.496;13.456;2023-04-25T00:40:48;9.10;62.90
70079;DHT22;57451;52.496;13.456;2023-04-25T00:43:15;9.10;62.70
70079;DHT22;57451;52.496;13.456;2023-04-25T00:45:47;9.10;62.90
70079;DHT22;57451;52.496;13.456;2023-04-25T00:48:15;9.10;63.00
70079;DHT22;57451;52.496;13.456;2023-04-25T00:50:50;9.10;63.10
70079;DHT22;57451;52.496;13.456;2023-04-25T00:53:18;9.10;63.00
70079;DHT22;57451;52.496;13.456;2023-04-25T00:55:45;9.10;63.10
70079;DHT22;57451;52.496;13.456;2023-04-25T00:58:13;9.00;63.00
70079;DHT22;57451;52.496;13.456;2023-04-25T01:00:41;9.10;63.00
70079;DHT22;57451;52.496;13.456;2023-04-25T01:03:10;9.20;63.00
70079;DHT22;57451;52.496;13.456;2023-04-25T01:05:38;9.20;62.60
70079;DHT22;57451;52.496;13.456;2023-04-25T01:08:06;9.20;62.90
70079;DHT22;57451;52.496;13.456;2023-04-25T01:10:33;9.10;63.00
70079;DHT22;57451;52.496;13.456;2023-04-25T01:13:01;9.10;63.10
70079;DHT22;57451;52.496;13.456;2023-04-25T01:15:28;9.10;62.90
70079;DHT22;57451;52.496;13.456;2023-04-25T01:17:56;9.00;63.20
70079;DHT22;57451;52.496;13.456;2023-04-25T01:20:25;9.00;63.50
70079;DHT22;57451;52.496;13.456;2023-04-25T01:22:55;9.00;63.50
70079;DHT22;57451;52.496;13.456;2023-04-25T01:25:24;9.00;63.40
70079;DHT22;57451;52.496;13.456;2023-04-25T01:27:51;9.10;63.50
70079;DHT22;57451;52.496;13.456;2023-04-25T01:30:19;9.00;63.40
70079;DHT22;57451;52.496;13.456;2023-04-25T01:32:47;9.00;63.40
70079;DHT22;57451;52.496;13.456;2023-04-25T01:35:15;9.00;63.40
70079;DHT22;57451;52.496;13.456;2023-04-25T01:37:43;9.10;63.20
70079;DHT22;57451;52.496;13.456;2023-04-25T01:40:13;9.10;62.90
70079;DHT22;57451;52.496;13.456;2023-04-25T01:42:42;9.20;62.80
70079;DHT22;57451;52.496;13.456;2023-04-25T01:45:10;9.20;62.80
70079;DHT22;57451;52.496;13.456;2023-04-25T01:47:38;9.20;62.90
70079;DHT22;57451;52.496;13.456;2023-04-25T01:50:08;9.20;62.90
70079;DHT22;57451;52.496;13.456;2023-04-25T01:52:37;9.20;62.70
70079;DHT22;57451;52.496;13.456;2023-04-25T01:55:05;9.20;62.90
70079;DHT22;57451;52.496;13.456;2023-04-25T01:57:36;9.10;63.00
70079;DHT22;57451;52.496;13.456;2023-04-25T02:00:05;9.10;63.00
70079;DHT22;57451;52.496;13.456;2023-04-25T02:02:39;9.10;62.90
70079;DHT22;57451;52.496;13.456;2023-04-25T02:05:17;9.10;63.10
70079;DHT22;57451;52.496;13.456;2023-04-25T02:07:45;9.10;62.90
70079;DHT22;57451;52.496;13.456;2023-04-25T02:10:12;9.20;62.80
70079;DHT22;57451;52.496;13.456;2023-04-25T02:12:52;9.10;62.90
70079;DHT22;57451;52.496;13.456;2023-04-25T02:15:35;9.10;63.10
70079;DHT22;57451;52.496;13.456;2023-04-25T02:18:14;9.20;62.90
70079;DHT22;57451;52.496;13.456;2023-04-25T02:20:43;9.20;62.80
70079;DHT22;57451;52.496;13.456;2023-04-25T02:23:11;9.20;62.90
70079;DHT22;57451;52.496;13.456;2023-04-25T02:25:38;9.10;62.90
70079;DHT22;57451;52.496;13.456;2023-04-25T02:28:07;9.10;63.10
70079;DHT22;57451;52.496;13.456;2023-04-25T02:30:35;9.10;63.00
70079;DHT22;57451;52.496;13.456;2023-04-25T02:33:04;9.10;62.90
70079;DHT22;57451;52.496;13.456;2023-04-25T02:35:32;9.20;62.70
70079;DHT22;57451;52.496;13.456;2023-04-25T02:37:59;9.20;62.70
70079;DHT22;57451;52.496;13.456;2023-04-25T02:40:26;9.20;62.60
70079;DHT22;57451;52.496;13.456;2023-04-25T02:42:54;9.20;62.60
70079;DHT22;57451;52.496;13.456;2023-04-25T02:45:22;9.10;62.90
70079;DHT22;57451;52.496;13.456;2023-04-25T02:47:50;9.10;63.10
70079;DHT22;57451;52.496;13.456;2023-04-25T02:50:18;9.20;62.90
70079;DHT22;57451;52.496;13.456;2023-04-25T02:52:46;9.20;62.90
70079;DHT22;57451;52.496;13.456;2023-04-25T02:55:21;9.10;62.90
70079;DHT22;57451;52.496;13.456;2023-04-25T02:57:50;9.20;63.00
70079;DHT22;57451;52.496;13.456;2023-04-25T03:00:37;9.10;63.00
70079;DHT22;57451;52.496;13.456;2023-04-25T03:03:09;9.20;62.70
70079;DHT22;57451;52.496;13.456;2023-04-25T03:05:37;9.10;62.90
70079;DHT22;57451;52.496;13.456;2023-04-25T03:08:04;9.10;63.30
70079;DHT22;57451;52.496;13.456;2023-04-25T03:10:38;9.00;63.50
70079;DHT22;57451;52.496;13.456;2023-04-25T03:13:08;9.00;63.50
70079;DHT22;57451;52.496;13.456;2023-04-25T03:15:38;9.00;63.40
70079;DHT22;57451;52.496;13.456;2023-04-25T03:18:18;9.00;63.20
70079;DHT22;57451;52.496;13.456;2023-04-25T03:20:51;9.00;63.50
70079;DHT22;57451;52.496;13.456;2023-04-25T03:23:19;9.00;63.50
70079;DHT22;57451;52.496;13.456;2023-04-25T03:25:53;9.00;63.50
70079;DHT22;57451;52.496;13.456;2023-04-25T03:28:21;9.10;63.10
70079;DHT22;57451;52.496;13.456;2023-04-25T03:30:51;9.10;63.10
70079;DHT22;57451;52.496;13.456;2023-04-25T03:33:18;9.00;63.50
70079;DHT22;57451;52.496;13.456;2023-04-25T03:35:46;9.10;63.30
70079;DHT22;57451;52.496;13.456;2023-04-25T03:38:13;9.10;63.20
70079;DHT22;57451;52.496;13.456;2023-04-25T03:40:40;9.10;63.00
70079;DHT22;57451;52.496;13.456;2023-04-25T03:43:15;9.10;63.00
70079;DHT22;57451;52.496;13.456;2023-04-25T03:45:51;9.10;63.40
70079;DHT22;57451;52.496;13.456;2023-04-25T03:48:21;9.00;63.60
70079;DHT22;57451;52.496;13.456;2023-04-25T03:50:49;9.00;63.90
70079;DHT22;57451;52.496;13.456;2023-04-25T03:53:16;9.00;63.90
70079;DHT22;57451;52.496;13.456;2023-04-25T03:56:06;8.90;63.90
70079;DHT22;57451;52.496;13.456;2023-04-25T03:58:36;9.00;63.90
70079;DHT22;57451;52.496;13.456;2023-04-25T04:01:04;8.90;63.80
70079;DHT22;57451;52.496;13.456;2023-04-25T04:03:37;8.90;63.80
70079;DHT22;57451;52.496;13.456;2023-04-25T04:06:05;9.00;63.70
70079;DHT22;57451;52.496;13.456;2023-04-25T04:08:36;9.10;63.30
70079;DHT22;57451;52.496;13.456;2023-04-25T04:11:04;9.00;63.70
70079;DHT22;57451;52.496;13.456;2023-04-25T04:13:32;9.00;63.70
70079;DHT22;57451;52.496;13.456;2023-04-25T04:16:01;9.00;63.50
70079;DHT22;57451;52.496;13.456;2023-04-25T04:18:30;9.00;63.70
70079;DHT22;57451;52.496;13.456;2023-04-25T04:20:57;9.00;63.50
70079;DHT22;57451;52.496;13.456;2023-04-25T04:23:27;9.00;63.80
70079;DHT22;57451;52.496;13.456;2023-04-25T04:25:55;8.90;64.00
70079;DHT22;57451;52.496;13.456;2023-04-25T04:28:42;8.90;64.00
70079;DHT22;57451;52.496;13.456;2023-04-25T04:31:25;8.90;64.00
70079;DHT22;57451;52.496;13.456;2023-04-25T04:33:54;8.90;64.00
70079;DHT22;57451;52.496;13.456;2023-04-25T04:36:21;8.90;63.90
70079;DHT22;57451;52.496;13.456;2023-04-25T04:38:50;8.90;64.10
70079;DHT22;57451;52.496;13.456;2023-04-25T04:41:28;8.90;64.00
70079;DHT22;57451;52.496;13.456;2023-04-25T04:44:25;9.00;64.10
70079;DHT22;57451;52.496;13.456;2023-04-25T04:47:11;9.00;64.10
70079;DHT22;57451;52.496;13.456;2023-04-25T04:50:02;9.10;63.70
70079;DHT22;57451;52.496;13.456;2023-04-25T04:52:49;9.00;63.90
70079;DHT22;57451;52.496;13.456;2023-04-25T04:55:34;8.90;64.10
70079;DHT22;57451;52.496;13.456;2023-04-25T04:58:11;9.00;63.90
70079;DHT22;57451;52.496;13.456;2023-04-25T05:00:48;9.00;63.80
70079;DHT22;57451;52.496;13.456;2023-04-25T05:03:32;9.10;63.80
70079;DHT22;57451;52.496;13.456;2023-04-25T05:06:14;9.00;64.00
70079;DHT22;57451;52.496;13.456;2023-04-25T05:08:52;8.90;64.20
70079;DHT22;57451;52.496;13.456;2023-04-25T05:11:44;9.00;64.30
70079;DHT22;57451;52.496;13.456;2023-04-25T05:14:37;9.10;63.80
70079;DHT22;57451;52.496;13.456;2023-04-25T05:17:23;9.10;63.50
70079;DHT22;57451;52.496;13.456;2023-04-25T05:20:00;9.20;63.50
70079;DHT22;57451;52.496;13.456;2023-04-25T05:25:17;9.10;63.90
70079;DHT22;57451;52.496;13.456;2023-04-25T05:27:58;9.10;64.10
70079;DHT22;57451;52.496;13.456;2023-04-25T05:30:40;9.00;64.30
70079;DHT22;57451;52.496;13.456;2023-04-25T05:33:29;9.00;64.40
70079;DHT22;57451;52.496;13.456;2023-04-25T05:35:56;9.10;64.30
70079;DHT22;57451;52.496;13.456;2023-04-25T05:38:25;9.10;64.20
70079;DHT22;57451;52.496;13.456;2023-04-25T05:41:26;9.10;64.30
70079;DHT22;57451;52.496;13.456;2023-04-25T05:43:58;9.20;64.10
70079;DHT22;57451;52.496;13.456;2023-04-25T05:46:31;9.20;64.20
70079;DHT22;57451;52.496;13.456;2023-04-25T05:49:17;9.20;64.20
70079;DHT22;57451;52.496;13.456;2023-04-25T05:52:19;9.20;64.10
70079;DHT22;57451;52.496;13.456;2023-04-25T05:54:50;9.20;64.50
70079;DHT22;57451;52.496;13.456;2023-04-25T05:57:23;9.20;65.40
70079;DHT22;57451;52.496;13.456;2023-04-25T05:59:51;9.10;65.20
70079;DHT22;57451;52.496;13.456;2023-04-25T06:02:20;9.20;65.30
70079;DHT22;57451;52.496;13.456;2023-04-25T06:04:50;9.30;64.70
70079;DHT22;57451;52.496;13.456;2023-04-25T06:07:19;9.40;64.40
70079;DHT22;57451;52.496;13.456;2023-04-25T06:09:47;9.30;64.60
70079;DHT22;57451;52.496;13.456;2023-04-25T06:12:15;9.40;65.00
70079;DHT22;57451;52.496;13.456;2023-04-25T06:14:44;9.50;64.80
70079;DHT22;57451;52.496;13.456;2023-04-25T06:17:11;9.50;64.30
70079;DHT22;57451;52.496;13.456;2023-04-25T06:19:38;9.30;64.90
70079;DHT22;57451;52.496;13.456;2023-04-25T06:22:07;9.30;65.10
70079;DHT22;57451;52.496;13.456;2023-04-25T06:24:38;9.40;65.70
70079;DHT22;57451;52.496;13.456;2023-04-25T06:27:06;9.40;65.10
70079;DHT22;57451;52.496;13.456;2023-04-25T06:29:33;9.30;65.30
70079;DHT22;57451;52.496;13.456;2023-04-25T06:32:02;9.40;65.00
70079;DHT22;57451;52.496;13.456;2023-04-25T06:34:29;9.40;65.00
70079;DHT22;57451;52.496;13.456;2023-04-25T06:36:57;9.30;65.50
70079;DHT22;57451;52.496;13.456;2023-04-25T06:39:25;9.30;65.50
70079;DHT22;57451;52.496;13.456;2023-04-25T06:41:52;9.30;65.50
70079;DHT22;57451;52.496;13.456;2023-04-25T06:44:46;9.30;65.40
70079;DHT22;57451;52.496;13.456;2023-04-25T06:47:15;9.30;65.30
70079;DHT22;57451;52.496;13.456;2023-04-25T06:49:43;9.40;65.10
70079;DHT22;57451;52.496;13.456;2023-04-25T06:52:10;9.50;65.00
70079;DHT22;57451;52.496;13.456;2023-04-25T06:54:38;9.50;64.90
70079;DHT22;57451;52.496;13.456;2023-04-25T06:57:18;9.50;65.10
70079;DHT22;57451;52.496;13.456;2023-04-25T06:59:45;9.60;64.90
70079;DHT22;57451;52.496;13.456;2023-04-25T07:02:14;9.50;64.90
70079;DHT22;57451;52.496;13.456;2023-04-25T07:04:42;9.50;65.40
70079;DHT22;57451;52.496;13.456;2023-04-25T07:07:09;9.40;65.80
70079;DHT22;57451;52.496;13.456;2023-04-25T07:09:44;9.40;65.90
70079;DHT22;57451;52.496;13.456;2023-04-25T07:12:11;9.50;65.90
70079;DHT22;57451;52.496;13.456;2023-04-25T07:14:38;9.50;65.60
70079;DHT22;57451;52.496;13.456;2023-04-25T07:17:07;9.60;65.80
70079;DHT22;57451;52.496;13.456;2023-04-25T07:19:36;9.60;65.50
70079;DHT22;57451;52.496;13.456;2023-04-25T07:22:05;9.60;65.60
70079;DHT22;57451;52.496;13.456;2023-04-25T07:24:35;9.50;65.80
70079;DHT22;57451;52.496;13.456;2023-04-25T07:27:04;9.50;65.60
70079;DHT22;57451;52.496;13.456;2023-04-25T07:29:39;9.60;65.40
70079;DHT22;57451;52.496;13.456;2023-04-25T07:32:07;9.50;65.40
70079;DHT22;57451;52.496;13.456;2023-04-25T07:34:36;9.50;65.60
70079;DHT22;57451;52.496;13.456;2023-04-25T07:37:04;9.50;65.70
70079;DHT22;57451;52.496;13.456;2023-04-25T07:39:40;9.50;65.60
70079;DHT22;57451;52.496;13.456;2023-04-25T07:42:07;9.60;65.20
70079;DHT22;57451;52.496;13.456;2023-04-25T07:44:37;9.60;65.00
70079;DHT22;57451;52.496;13.456;2023-04-25T07:47:09;9.40;65.10
70079;DHT22;57451;52.496;13.456;2023-04-25T07:49:38;9.40;65.50
70079;DHT22;57451;52.496;13.456;2023-04-25T07:52:05;9.40;64.70
70079;DHT22;57451;52.496;13.456;2023-04-25T07:54:35;9.50;64.60
70079;DHT22;57451;52.496;13.456;2023-04-25T07:57:11;9.50;63.90
70079;DHT22;57451;52.496;13.456;2023-04-25T07:59:38;9.50;63.80
70079;DHT22;57451;52.496;13.456;2023-04-25T08:02:06;9.60;63.50
70079;DHT22;57451;52.496;13.456;2023-04-25T08:04:33;9.60;63.30
70079;DHT22;57451;52.496;13.456;2023-04-25T08:07:07;9.50;63.00
70079;DHT22;57451;52.496;13.456;2023-04-25T08:09:42;9.50;62.20
70079;DHT22;57451;52.496;13.456;2023-04-25T08:12:16;9.50;62.00
70079;DHT22;57451;52.496;13.456;2023-04-25T08:14:44;9.40;61.10
70079;DHT22;57451;52.496;13.456;2023-04-25T08:17:11;9.50;61.20
70079;DHT22;57451;52.496;13.456;2023-04-25T08:19:41;9.50;60.40
70079;DHT22;57451;52.496;13.456;2023-04-25T08:22:17;9.60;60.80
70079;DHT22;57451;52.496;13.456;2023-04-25T08:24:53;9.70;61.00
70079;DHT22;57451;52.496;13.456;2023-04-25T08:27:21;9.80;60.40
70079;DHT22;57451;52.496;13.456;2023-04-25T08:29:48;9.80;59.20
70079;DHT22;57451;52.496;13.456;2023-04-25T08:32:16;9.80;59.30
70079;DHT22;57451;52.496;13.456;2023-04-25T08:34:55;9.90;59.30
70079;DHT22;57451;52.496;13.456;2023-04-25T08:37:24;10.00;59.50
70079;DHT22;57451;52.496;13.456;2023-04-25T08:39:59;10.10;58.50
70079;DHT22;57451;52.496;13.456;2023-04-25T08:42:45;10.10;58.20
70079;DHT22;57451;52.496;13.456;2023-04-25T08:45:14;10.20;58.10
70079;DHT22;57451;52.496;13.456;2023-04-25T08:47:45;10.20;57.30
70079;DHT22;57451;52.496;13.456;2023-04-25T08:50:12;10.20;56.20
70079;DHT22;57451;52.496;13.456;2023-04-25T08:52:44;10.20;56.40
70079;DHT22;57451;52.496;13.456;2023-04-25T08:55:13;10.30;56.30
70079;DHT22;57451;52.496;13.456;2023-04-25T08:57:42;10.40;56.40
70079;DHT22;57451;52.496;13.456;2023-04-25T09:00:13;10.40;54.50
70079;DHT22;57451;52.496;13.456;2023-04-25T09:02:43;10.40;53.20
70079;DHT22;57451;52.496;13.456;2023-04-25T09:05:12;10.40;53.60
70079;DHT22;57451;52.496;13.456;2023-04-25T09:07:42;10.40;53.10
70079;DHT22;57451;52.496;13.456;2023-04-25T09:10:09;10.40;52.10
70079;DHT22;57451;52.496;13.456;2023-04-25T09:12:38;10.30;51.90
70079;DHT22;57451;52.496;13.456;2023-04-25T09:15:09;10.50;52.50
70079;DHT22;57451;52.496;13.456;2023-04-25T09:18:06;10.60;53.40
70079;DHT22;57451;52.496;13.456;2023-04-25T09:20:41;10.70;50.70
70079;DHT22;57451;52.496;13.456;2023-04-25T09:23:28;10.80;48.90
70079;DHT22;57451;52.496;13.456;2023-04-25T09:25:55;10.80;51.00
70079;DHT22;57451;52.496;13.456;2023-04-25T09:28:23;10.90;49.80
70079;DHT22;57451;52.496;13.456;2023-04-25T09:30:55;11.00;49.50
70079;DHT22;57451;52.496;13.456;2023-04-25T09:33:30;11.10;49.60
70079;DHT22;57451;52.496;13.456;2023-04-25T09:36:03;11.30;48.90
70079;DHT22;57451;52.496;13.456;2023-04-25T09:39:12;11.40;49.00
70079;DHT22;57451;52.496;13.456;2023-04-25T09:41:47;11.50;47.40
70079;DHT22;57451;52.496;13.456;2023-04-25T09:44:19;11.50;49.60
70079;DHT22;57451;52.496;13.456;2023-04-25T09:46:50;11.60;48.60
70079;DHT22;57451;52.496;13.456;2023-04-25T09:49:25;11.70;47.80
70079;DHT22;57451;52.496;13.456;2023-04-25T09:52:02;11.70;46.90
70079;DHT22;57451;52.496;13.456;2023-04-25T09:54:38;11.70;45.20
70079;DHT22;57451;52.496;13.456;2023-04-25T09:57:13;11.60;45.00
70079;DHT22;57451;52.496;13.456;2023-04-25T09:59:46;11.50;44.50
70079;DHT22;57451;52.496;13.456;2023-04-25T10:02:15;11.60;45.00
70079;DHT22;57451;52.496;13.456;2023-04-25T10:04:46;11.60;44.30
70079;DHT22;57451;52.496;13.456;2023-04-25T10:07:22;11.70;44.90
70079;DHT22;57451;52.496;13.456;2023-04-25T10:09:57;11.60;45.10
70079;DHT22;57451;52.496;13.456;2023-04-25T10:12:26;11.50;44.50
70079;DHT22;57451;52.496;13.456;2023-04-25T10:14:54;11.60;45.20
70079;DHT22;57451;52.496;13.456;2023-04-25T10:17:22;11.60;43.90
70079;DHT22;57451;52.496;13.456;2023-04-25T10:19:51;11.60;44.40
70079;DHT22;57451;52.496;13.456;2023-04-25T10:22:35;11.70;44.60
70079;DHT22;57451;52.496;13.456;2023-04-25T10:25:06;11.70;43.90
70079;DHT22;57451;52.496;13.456;2023-04-25T10:27:35;11.80;45.30
70079;DHT22;57451;52.496;13.456;2023-04-25T10:30:04;11.90;44.70
70079;DHT22;57451;52.496;13.456;2023-04-25T10:32:32;11.70;42.20
70079;DHT22;57451;52.496;13.456;2023-04-25T10:35:10;11.60;43.30
70079;DHT22;57451;52.496;13.456;2023-04-25T10:37:38;11.60;43.50
70079;DHT22;57451;52.496;13.456;2023-04-25T10:40:12;11.60;43.80
70079;DHT22;57451;52.496;13.456;2023-04-25T10:42:41;11.70;44.60
70079;DHT22;57451;52.496;13.456;2023-04-25T10:45:09;11.70;44.50
70079;DHT22;57451;52.496;13.456;2023-04-25T10:47:36;11.80;44.20
70079;DHT22;57451;52.496;13.456;2023-04-25T10:50:11;11.70;44.00
70079;DHT22;57451;52.496;13.456;2023-04-25T10:52:39;11.70;43.90
70079;DHT22;57451;52.496;13.456;2023-04-25T10:55:08;11.70;44.10
70079;DHT22;57451;52.496;13.456;2023-04-25T10:57:41;11.70;44.90
70079;DHT22;57451;52.496;13.456;2023-04-25T11:00:11;11.70;44.00
70079;DHT22;57451;52.496;13.456;2023-04-25T11:02:43;11.80;45.20
70079;DHT22;57451;52.496;13.456;2023-04-25T11:05:20;11.70;43.70
70079;DHT22;57451;52.496;13.456;2023-04-25T11:07:50;11.60;43.80
70079;DHT22;57451;52.496;13.456;2023-04-25T11:10:33;11.50;44.50
70079;DHT22;57451;52.496;13.456;2023-04-25T11:13:05;11.60;43.70
70079;DHT22;57451;52.496;13.456;2023-04-25T11:15:32;11.60;44.30
70079;DHT22;57451;52.496;13.456;2023-04-25T11:17:59;11.60;43.90
70079;DHT22;57451;52.496;13.456;2023-04-25T11:20:28;11.70;44.00
70079;DHT22;57451;52.496;13.456;2023-04-25T11:22:57;11.60;43.30
70079;DHT22;57451;52.496;13.456;2023-04-25T11:25:26;11.50;43.30
70079;DHT22;57451;52.496;13.456;2023-04-25T11:27:54;11.50;43.40
70079;DHT22;57451;52.496;13.456;2023-04-25T11:30:24;11.40;43.80
70079;DHT22;57451;52.496;13.456;2023-04-25T11:32:52;11.30;44.00
70079;DHT22;57451;52.496;13.456;2023-04-25T11:35:20;11.20;43.40
70079;DHT22;57451;52.496;13.456;2023-04-25T11:37:50;11.10;43.40
70079;DHT22;57451;52.496;13.456;2023-04-25T11:40:18;11.10;43.70
70079;DHT22;57451;52.496;13.456;2023-04-25T11:42:46;11.00;43.30
70079;DHT22;57451;52.496;13.456;2023-04-25T11:45:14;11.00;42.20
70079;DHT22;57451;52.496;13.456;2023-04-25T11:47:43;11.00;43.50
70079;DHT22;57451;52.496;13.456;2023-04-25T11:50:10;10.90;42.70
70079;DHT22;57451;52.496;13.456;2023-04-25T11:52:39;10.80;42.80
70079;DHT22;57451;52.496;13.456;2023-04-25T11:55:08;10.90;41.60
70079;DHT22;57451;52.496;13.456;2023-04-25T11:57:38;10.80;42.60
70079;DHT22;57451;52.496;13.456;2023-04-25T12:00:10;10.90;43.10
70079;DHT22;57451;52.496;13.456;2023-04-25T12:02:47;10.90;42.20
70079;DHT22;57451;52.496;13.456;2023-04-25T12:05:15;11.00;42.70
70079;DHT22;57451;52.496;13.456;2023-04-25T12:08:10;11.00;42.10
70079;DHT22;57451;52.496;13.456;2023-04-25T12:10:38;10.80;41.70
70079;DHT22;57451;52.496;13.456;2023-04-25T12:13:20;10.80;42.80
70079;DHT22;57451;52.496;13.456;2023-04-25T12:15:47;10.90;42.20
70079;DHT22;57451;52.496;13.456;2023-04-25T12:18:19;10.90;42.40
70079;DHT22;57451;52.496;13.456;2023-04-25T12:20:46;10.90;43.00
70079;DHT22;57451;52.496;13.456;2023-04-25T12:23:13;11.00;44.10
70079;DHT22;57451;52.496;13.456;2023-04-25T12:25:42;11.10;43.60
70079;DHT22;57451;52.496;13.456;2023-04-25T12:28:11;11.20;44.10
70079;DHT22;57451;52.496;13.456;2023-04-25T12:30:55;11.10;42.90
70079;DHT22;57451;52.496;13.456;2023-04-25T12:33:25;11.10;41.70
70079;DHT22;57451;52.496;13.456;2023-04-25T12:35:53;11.10;42.00
70079;DHT22;57451;52.496;13.456;2023-04-25T12:38:22;11.20;41.40
70079;DHT22;57451;52.496;13.456;2023-04-25T12:40:49;11.30;42.10
70079;DHT22;57451;52.496;13.456;2023-04-25T12:43:16;11.40;40.50
70079;DHT22;57451;52.496;13.456;2023-04-25T12:45:44;11.60;41.80
70079;DHT22;57451;52.496;13.456;2023-04-25T12:48:12;11.70;41.70
70079;DHT22;57451;52.496;13.456;2023-04-25T12:50:41;11.90;41.30
70079;DHT22;57451;52.496;13.456;2023-04-25T12:53:08;11.90;41.00
70079;DHT22;57451;52.496;13.456;2023-04-25T12:55:35;12.10;41.10
70079;DHT22;57451;52.496;13.456;2023-04-25T12:58:03;12.20;40.20
70079;DHT22;57451;52.496;13.456;2023-04-25T13:00:30;12.10;40.00
70079;DHT22;57451;52.496;13.456;2023-04-25T13:02:58;12.00;40.40
70079;DHT22;57451;52.496;13.456;2023-04-25T13:05:26;12.10;39.60
70079;DHT22;57451;52.496;13.456;2023-04-25T13:07:55;12.00;39.80
70079;DHT22;57451;52.496;13.456;2023-04-25T13:10:22;12.00;40.70
70079;DHT22;57451;52.496;13.456;2023-04-25T13:12:49;12.10;40.20
70079;DHT22;57451;52.496;13.456;2023-04-25T13:15:17;12.00;39.80
70079;DHT22;57451;52.496;13.456;2023-04-25T13:17:44;12.00;40.20
70079;DHT22;57451;52.496;13.456;2023-04-25T13:20:12;12.10;41.00
70079;DHT22;57451;52.496;13.456;2023-04-25T13:22:41;12.10;41.00
70079;DHT22;57451;52.496;13.456;2023-04-25T13:25:10;12.30;40.70
70079;DHT22;57451;52.496;13.456;2023-04-25T13:27:37;12.70;40.70
70079;DHT22;57451;52.496;13.456;2023-04-25T13:30:06;12.90;38.70
70079;DHT22;57451;52.496;13.456;2023-04-25T13:32:34;13.20;37.80
70079;DHT22;57451;52.496;13.456;2023-04-25T13:35:03;13.60;37.20
70079;DHT22;57451;52.496;13.456;2023-04-25T13:37:35;13.70;38.70
70079;DHT22;57451;52.496;13.456;2023-04-25T13:40:04;14.00;38.00
70079;DHT22;57451;52.496;13.456;2023-04-25T13:42:33;14.20;37.50
70079;DHT22;57451;52.496;13.456;2023-04-25T13:45:00;14.00;36.90
70079;DHT22;57451;52.496;13.456;2023-04-25T13:47:28;13.80;38.10
70079;DHT22;57451;52.496;13.456;2023-04-25T13:49:55;14.00;38.50
70079;DHT22;57451;52.496;13.456;2023-04-25T13:52:23;14.00;38.00
70079;DHT22;57451;52.496;13.456;2023-04-25T13:54:51;13.80;37.50
70079;DHT22;57451;52.496;13.456;2023-04-25T13:57:18;13.60;38.70
70079;DHT22;57451;52.496;13.456;2023-04-25T13:59:47;13.80;39.80
70079;DHT22;57451;52.496;13.456;2023-04-25T14:02:14;14.00;39.50
70079;DHT22;57451;52.496;13.456;2023-04-25T14:04:42;14.10;39.00
70079;DHT22;57451;52.496;13.456;2023-04-25T14:07:09;14.00;39.10
70079;DHT22;57451;52.496;13.456;2023-04-25T14:09:37;14.10;38.90
70079;DHT22;57451;52.496;13.456;2023-04-25T14:12:05;14.00;38.70
70079;DHT22;57451;52.496;13.456;2023-04-25T14:14:33;13.80;39.10
70079;DHT22;57451;52.496;13.456;2023-04-25T14:17:01;13.70;39.20
70079;DHT22;57451;52.496;13.456;2023-04-25T14:19:28;13.50;39.10
70079;DHT22;57451;52.496;13.456;2023-04-25T14:21:56;13.30;38.20
70079;DHT22;57451;52.496;13.456;2023-04-25T14:24:23;13.00;39.70
70079;DHT22;57451;52.496;13.456;2023-04-25T14:26:50;12.90;39.30
70079;DHT22;57451;52.496;13.456;2023-04-25T14:29:18;12.80;39.80
70079;DHT22;57451;52.496;13.456;2023-04-25T14:31:45;12.60;39.60
70079;DHT22;57451;52.496;13.456;2023-04-25T14:34:14;12.50;39.40
70079;DHT22;57451;52.496;13.456;2023-04-25T14:36:41;12.30;40.00
70079;DHT22;57451;52.496;13.456;2023-04-25T14:39:09;12.20;40.00
70079;DHT22;57451;52.496;13.456;2023-04-25T14:41:37;12.10;40.00
70079;DHT22;57451;52.496;13.456;2023-04-25T14:44:04;11.90;40.30
70079;DHT22;57451;52.496;13.456;2023-04-25T14:46:32;11.70;40.70
70079;DHT22;57451;52.496;13.456;2023-04-25T14:48:59;11.70;41.10
70079;DHT22;57451;52.496;13.456;2023-04-25T14:51:28;11.70;41.40
70079;DHT22;57451;52.496;13.456;2023-04-25T14:53:55;11.80;40.80
70079;DHT22;57451;52.496;13.456;2023-04-25T14:56:22;11.70;41.60
70079;DHT22;57451;52.496;13.456;2023-04-25T14:58:49;11.70;41.60
70079;DHT22;57451;52.496;13.456;2023-04-25T15:01:17;11.70;42.40
70079;DHT22;57451;52.496;13.456;2023-04-25T15:03:44;11.90;42.60
70079;DHT22;57451;52.496;13.456;2023-04-25T15:06:12;12.00;42.50
70079;DHT22;57451;52.496;13.456;2023-04-25T15:08:41;12.10;42.90
70079;DHT22;57451;52.496;13.456;2023-04-25T15:11:08;12.20;42.50
70079;DHT22;57451;52.496;13.456;2023-04-25T15:13:35;12.10;42.30
70079;DHT22;57451;52.496;13.456;2023-04-25T15:16:02;11.80;42.40
70079;DHT22;57451;52.496;13.456;2023-04-25T15:18:30;11.70;43.40
70079;DHT22;57451;52.496;13.456;2023-04-25T15:20:57;11.70;43.30
70079;DHT22;57451;52.496;13.456;2023-04-25T15:23:24;11.70;43.10
70079;DHT22;57451;52.496;13.456;2023-04-25T15:25:57;11.60;43.20
70079;DHT22;57451;52.496;13.456;2023-04-25T15:28:24;11.40;43.40
70079;DHT22;57451;52.496;13.456;2023-04-25T15:30:51;11.50;44.10
70079;DHT22;57451;52.496;13.456;2023-04-25T15:33:18;11.50;44.50
70079;DHT22;57451;52.496;13.456;2023-04-25T15:35:46;11.50;43.70
70079;DHT22;57451;52.496;13.456;2023-04-25T15:38:13;11.30;43.60
70079;DHT22;57451;52.496;13.456;2023-04-25T15:40:40;11.30;43.40
70079;DHT22;57451;52.496;13.456;2023-04-25T15:43:09;11.40;43.40
70079;DHT22;57451;52.496;13.456;2023-04-25T15:45:41;11.40;43.00
70079;DHT22;57451;52.496;13.456;2023-04-25T15:48:09;11.40;42.80
70079;DHT22;57451;52.496;13.456;2023-04-25T15:50:37;11.40;43.10